Archival Weather

Granbury Rgnl

Granbury, Texas (KGDJ)

Report from: Monday, January 29, 2024 2:55 PM UTC
Current time: Tuesday, June 18, 2024 11:21 AM UTC

Current weather – Weather history – Daily summaries
Weather forecast

Temperature4.5°C (40.1°F)
Dew point2.4°C (36.3°F)
Winds Calm
Visibility10 mi. (16.1 km)
Clouds Sky clear
Altimeter30.35 in.Hg (1028 mB)
Relative humidity86 %
Density altitude-1,655 ft. (-504 m)
Remarks Fully automated report
Automated weather observing station with precipitation discriminator
Flight conditions Visual Meteorological Conditions
Raw dataKGDJ 291455Z AUTO 00000KT 10SM CLR 05/02 A3035 RMK AO2 T00450024
An error has occurred. This application may no longer respond until reloaded. Reload 🗙